sensor_id;sensor_type;location;lat;lon;timestamp;temperature;humidity
4749;DHT22;2388;53.582;9.962;2023-08-07T00:02:23;16.80;99.90
4749;DHT22;2388;53.582;9.962;2023-08-07T00:04:48;16.80;99.90
4749;DHT22;2388;53.582;9.962;2023-08-07T00:07:14;16.90;99.90
4749;DHT22;2388;53.582;9.962;2023-08-07T00:09:39;16.80;99.90
4749;DHT22;2388;53.582;9.962;2023-08-07T00:12:05;16.80;99.90
4749;DHT22;2388;53.582;9.962;2023-08-07T00:14:30;16.80;99.90
4749;DHT22;2388;53.582;9.962;2023-08-07T00:16:56;16.80;99.90
4749;DHT22;2388;53.582;9.962;2023-08-07T00:19:21;16.80;99.90
4749;DHT22;2388;53.582;9.962;2023-08-07T00:21:47;16.80;99.90
4749;DHT22;2388;53.582;9.962;2023-08-07T00:24:12;16.70;99.90
4749;DHT22;2388;53.582;9.962;2023-08-07T00:26:38;16.70;99.90
4749;DHT22;2388;53.582;9.962;2023-08-07T00:29:03;16.70;99.90
4749;DHT22;2388;53.582;9.962;2023-08-07T00:31:29;16.70;99.90
4749;DHT22;2388;53.582;9.962;2023-08-07T00:33:57;16.70;99.90
4749;DHT22;2388;53.582;9.962;2023-08-07T00:36:22;16.70;99.90
4749;DHT22;2388;53.582;9.962;2023-08-07T00:38:48;16.70;99.90
4749;DHT22;2388;53.582;9.962;2023-08-07T00:41:16;16.70;99.90
4749;DHT22;2388;53.582;9.962;2023-08-07T00:43:41;16.70;99.90
4749;DHT22;2388;53.582;9.962;2023-08-07T00:46:07;16.70;99.90
4749;DHT22;2388;53.582;9.962;2023-08-07T00:48:32;16.70;99.90
4749;DHT22;2388;53.582;9.962;2023-08-07T00:50:58;16.70;99.90
4749;DHT22;2388;53.582;9.962;2023-08-07T00:53:24;16.70;99.90
4749;DHT22;2388;53.582;9.962;2023-08-07T00:55:50;16.70;99.90
4749;DHT22;2388;53.582;9.962;2023-08-07T00:58:16;16.70;99.90
4749;DHT22;2388;53.582;9.962;2023-08-07T01:00:42;16.80;99.90
4749;DHT22;2388;53.582;9.962;2023-08-07T01:03:08;16.70;99.90
4749;DHT22;2388;53.582;9.962;2023-08-07T01:05:34;16.80;99.90
4749;DHT22;2388;53.582;9.962;2023-08-07T01:08:00;16.70;99.90
4749;DHT22;2388;53.582;9.962;2023-08-07T01:10:42;16.70;99.90
4749;DHT22;2388;53.582;9.962;2023-08-07T01:13:23;16.70;99.90
4749;DHT22;2388;53.582;9.962;2023-08-07T01:15:52;16.70;99.90
4749;DHT22;2388;53.582;9.962;2023-08-07T01:18:21;16.70;99.90
4749;DHT22;2388;53.582;9.962;2023-08-07T01:20:47;16.70;99.90
4749;DHT22;2388;53.582;9.962;2023-08-07T01:23:13;16.70;99.90
4749;DHT22;2388;53.582;9.962;2023-08-07T01:25:38;16.70;99.90
4749;DHT22;2388;53.582;9.962;2023-08-07T01:28:27;16.70;99.90
4749;DHT22;2388;53.582;9.962;2023-08-07T01:31:02;16.60;99.90
4749;DHT22;2388;53.582;9.962;2023-08-07T01:33:43;16.60;99.90
4749;DHT22;2388;53.582;9.962;2023-08-07T01:36:12;16.60;99.90
4749;DHT22;2388;53.582;9.962;2023-08-07T01:38:40;16.60;99.90
4749;DHT22;2388;53.582;9.962;2023-08-07T01:41:07;16.60;99.90
4749;DHT22;2388;53.582;9.962;2023-08-07T01:43:32;16.60;99.90
4749;DHT22;2388;53.582;9.962;2023-08-07T01:45:58;16.70;99.90
4749;DHT22;2388;53.582;9.962;2023-08-07T01:48:25;16.60;99.90
4749;DHT22;2388;53.582;9.962;2023-08-07T01:50:50;16.60;99.90
4749;DHT22;2388;53.582;9.962;2023-08-07T01:53:16;16.60;99.90
4749;DHT22;2388;53.582;9.962;2023-08-07T01:55:41;16.60;99.90
4749;DHT22;2388;53.582;9.962;2023-08-07T01:58:07;16.60;99.90
4749;DHT22;2388;53.582;9.962;2023-08-07T02:00:32;16.60;99.90
4749;DHT22;2388;53.582;9.962;2023-08-07T02:02:58;16.60;99.90
4749;DHT22;2388;53.582;9.962;2023-08-07T02:05:23;16.50;99.90
4749;DHT22;2388;53.582;9.962;2023-08-07T02:07:49;16.50;99.90
4749;DHT22;2388;53.582;9.962;2023-08-07T02:10:14;16.50;99.90
4749;DHT22;2388;53.582;9.962;2023-08-07T02:12:40;16.50;99.90
4749;DHT22;2388;53.582;9.962;2023-08-07T02:15:06;16.50;99.90
4749;DHT22;2388;53.582;9.962;2023-08-07T02:17:31;16.50;99.90
4749;DHT22;2388;53.582;9.962;2023-08-07T02:19:58;16.50;99.90
4749;DHT22;2388;53.582;9.962;2023-08-07T02:22:24;16.50;99.90
4749;DHT22;2388;53.582;9.962;2023-08-07T02:24:50;16.50;99.90
4749;DHT22;2388;53.582;9.962;2023-08-07T02:27:15;16.50;99.90
4749;DHT22;2388;53.582;9.962;2023-08-07T02:29:41;16.40;99.90
4749;DHT22;2388;53.582;9.962;2023-08-07T02:32:07;16.40;99.90
4749;DHT22;2388;53.582;9.962;2023-08-07T02:34:32;16.50;99.90
4749;DHT22;2388;53.582;9.962;2023-08-07T02:36:58;16.40;99.90
4749;DHT22;2388;53.582;9.962;2023-08-07T02:39:24;16.50;99.90
4749;DHT22;2388;53.582;9.962;2023-08-07T02:41:50;16.40;99.90
4749;DHT22;2388;53.582;9.962;2023-08-07T02:44:15;16.40;99.90
4749;DHT22;2388;53.582;9.962;2023-08-07T02:46:43;16.40;99.90
4749;DHT22;2388;53.582;9.962;2023-08-07T02:49:08;16.40;99.90
4749;DHT22;2388;53.582;9.962;2023-08-07T02:51:34;16.40;99.90
4749;DHT22;2388;53.582;9.962;2023-08-07T02:53:59;16.40;99.90
4749;DHT22;2388;53.582;9.962;2023-08-07T02:56:25;16.40;99.90
4749;DHT22;2388;53.582;9.962;2023-08-07T02:58:50;16.40;99.90
4749;DHT22;2388;53.582;9.962;2023-08-07T03:01:16;16.40;99.90
4749;DHT22;2388;53.582;9.962;2023-08-07T03:03:41;16.40;99.90
4749;DHT22;2388;53.582;9.962;2023-08-07T03:06:07;16.40;99.90
4749;DHT22;2388;53.582;9.962;2023-08-07T03:08:32;16.40;99.90
4749;DHT22;2388;53.582;9.962;2023-08-07T03:10:58;16.40;99.90
4749;DHT22;2388;53.582;9.962;2023-08-07T03:13:24;16.40;99.90
4749;DHT22;2388;53.582;9.962;2023-08-07T03:15:50;16.40;99.90
4749;DHT22;2388;53.582;9.962;2023-08-07T03:18:23;16.40;99.90
4749;DHT22;2388;53.582;9.962;2023-08-07T03:20:52;16.40;99.90
4749;DHT22;2388;53.582;9.962;2023-08-07T03:23:17;16.40;99.90
4749;DHT22;2388;53.582;9.962;2023-08-07T03:25:43;16.40;99.90
4749;DHT22;2388;53.582;9.962;2023-08-07T03:28:08;16.40;99.90
4749;DHT22;2388;53.582;9.962;2023-08-07T03:30:34;16.40;99.90
4749;DHT22;2388;53.582;9.962;2023-08-07T03:32:59;16.40;99.90
4749;DHT22;2388;53.582;9.962;2023-08-07T03:35:25;16.40;99.90
4749;DHT22;2388;53.582;9.962;2023-08-07T03:37:50;16.40;99.90
4749;DHT22;2388;53.582;9.962;2023-08-07T03:40:16;16.40;99.90
4749;DHT22;2388;53.582;9.962;2023-08-07T03:42:41;16.40;99.90
4749;DHT22;2388;53.582;9.962;2023-08-07T03:45:07;16.40;99.90
4749;DHT22;2388;53.582;9.962;2023-08-07T03:47:33;16.40;99.90
4749;DHT22;2388;53.582;9.962;2023-08-07T03:49:58;16.40;99.90
4749;DHT22;2388;53.582;9.962;2023-08-07T03:52:24;16.30;99.90
4749;DHT22;2388;53.582;9.962;2023-08-07T03:54:49;16.40;99.90
4749;DHT22;2388;53.582;9.962;2023-08-07T03:57:15;16.40;99.90
4749;DHT22;2388;53.582;9.962;2023-08-07T03:59:40;16.40;99.90
4749;DHT22;2388;53.582;9.962;2023-08-07T04:02:06;16.40;99.90
4749;DHT22;2388;53.582;9.962;2023-08-07T04:04:31;16.40;99.90
4749;DHT22;2388;53.582;9.962;2023-08-07T04:06:57;16.40;99.90
4749;DHT22;2388;53.582;9.962;2023-08-07T04:09:22;16.30;99.90
4749;DHT22;2388;53.582;9.962;2023-08-07T04:11:48;16.30;99.90
4749;DHT22;2388;53.582;9.962;2023-08-07T04:14:13;16.30;99.90
4749;DHT22;2388;53.582;9.962;2023-08-07T04:16:39;16.40;99.90
4749;DHT22;2388;53.582;9.962;2023-08-07T04:19:05;16.40;99.90
4749;DHT22;2388;53.582;9.962;2023-08-07T04:21:32;16.40;99.90
4749;DHT22;2388;53.582;9.962;2023-08-07T04:23:57;16.40;99.90
4749;DHT22;2388;53.582;9.962;2023-08-07T04:26:23;16.40;99.90
4749;DHT22;2388;53.582;9.962;2023-08-07T04:28:48;16.40;99.90
4749;DHT22;2388;53.582;9.962;2023-08-07T04:31:14;16.40;99.90
4749;DHT22;2388;53.582;9.962;2023-08-07T04:33:39;16.30;99.90
4749;DHT22;2388;53.582;9.962;2023-08-07T04:36:05;16.30;99.90
4749;DHT22;2388;53.582;9.962;2023-08-07T04:38:30;16.30;99.90
4749;DHT22;2388;53.582;9.962;2023-08-07T04:40:56;16.30;99.90
4749;DHT22;2388;53.582;9.962;2023-08-07T04:43:21;16.30;99.90
4749;DHT22;2388;53.582;9.962;2023-08-07T04:45:47;16.40;99.90
4749;DHT22;2388;53.582;9.962;2023-08-07T04:48:13;16.30;99.90
4749;DHT22;2388;53.582;9.962;2023-08-07T04:50:39;16.30;99.90
4749;DHT22;2388;53.582;9.962;2023-08-07T04:53:05;16.30;99.90
4749;DHT22;2388;53.582;9.962;2023-08-07T04:55:32;16.40;99.90
4749;DHT22;2388;53.582;9.962;2023-08-07T04:57:57;16.40;99.90
4749;DHT22;2388;53.582;9.962;2023-08-07T05:00:23;16.40;99.90
4749;DHT22;2388;53.582;9.962;2023-08-07T05:02:49;16.40;99.90
4749;DHT22;2388;53.582;9.962;2023-08-07T05:05:15;16.40;99.90
4749;DHT22;2388;53.582;9.962;2023-08-07T05:07:41;16.40;99.90
4749;DHT22;2388;53.582;9.962;2023-08-07T05:10:08;16.40;99.90
4749;DHT22;2388;53.582;9.962;2023-08-07T05:12:33;16.40;99.90
4749;DHT22;2388;53.582;9.962;2023-08-07T05:14:59;16.50;99.90
4749;DHT22;2388;53.582;9.962;2023-08-07T05:17:24;16.40;99.90
4749;DHT22;2388;53.582;9.962;2023-08-07T05:19:50;16.40;99.90
4749;DHT22;2388;53.582;9.962;2023-08-07T05:22:15;16.50;99.90
4749;DHT22;2388;53.582;9.962;2023-08-07T05:24:41;16.40;99.90
4749;DHT22;2388;53.582;9.962;2023-08-07T05:27:10;16.50;99.90
4749;DHT22;2388;53.582;9.962;2023-08-07T05:29:35;16.50;99.90
4749;DHT22;2388;53.582;9.962;2023-08-07T05:32:11;16.50;99.90
4749;DHT22;2388;53.582;9.962;2023-08-07T05:34:37;16.50;99.90
4749;DHT22;2388;53.582;9.962;2023-08-07T05:37:03;16.60;99.90
4749;DHT22;2388;53.582;9.962;2023-08-07T05:39:29;16.60;99.90
4749;DHT22;2388;53.582;9.962;2023-08-07T05:41:55;16.50;99.90
4749;DHT22;2388;53.582;9.962;2023-08-07T05:44:23;16.60;99.90
4749;DHT22;2388;53.582;9.962;2023-08-07T05:46:49;16.60;99.90
4749;DHT22;2388;53.582;9.962;2023-08-07T05:49:14;16.60;99.90
4749;DHT22;2388;53.582;9.962;2023-08-07T05:51:40;16.60;99.90
4749;DHT22;2388;53.582;9.962;2023-08-07T05:54:05;16.70;99.90
4749;DHT22;2388;53.582;9.962;2023-08-07T05:56:31;16.70;99.90
4749;DHT22;2388;53.582;9.962;2023-08-07T05:58:56;16.70;99.90
4749;DHT22;2388;53.582;9.962;2023-08-07T06:01:22;16.70;99.90
4749;DHT22;2388;53.582;9.962;2023-08-07T06:03:47;16.70;99.90
4749;DHT22;2388;53.582;9.962;2023-08-07T06:06:14;16.70;99.90
4749;DHT22;2388;53.582;9.962;2023-08-07T06:08:39;16.70;99.90
4749;DHT22;2388;53.582;9.962;2023-08-07T06:11:05;16.70;99.90
4749;DHT22;2388;53.582;9.962;2023-08-07T06:13:33;16.80;99.90
4749;DHT22;2388;53.582;9.962;2023-08-07T06:15:59;16.80;99.90
4749;DHT22;2388;53.582;9.962;2023-08-07T06:18:24;16.80;99.90
4749;DHT22;2388;53.582;9.962;2023-08-07T06:20:50;16.80;99.90
4749;DHT22;2388;53.582;9.962;2023-08-07T06:23:15;16.70;99.90
4749;DHT22;2388;53.582;9.962;2023-08-07T06:25:41;16.70;99.90
4749;DHT22;2388;53.582;9.962;2023-08-07T06:28:06;16.70;99.90
4749;DHT22;2388;53.582;9.962;2023-08-07T06:30:32;16.60;99.90
4749;DHT22;2388;53.582;9.962;2023-08-07T06:32:57;16.60;99.90
4749;DHT22;2388;53.582;9.962;2023-08-07T06:35:23;16.60;99.90
4749;DHT22;2388;53.582;9.962;2023-08-07T06:37:48;16.60;99.90
4749;DHT22;2388;53.582;9.962;2023-08-07T06:40:14;16.60;99.90
4749;DHT22;2388;53.582;9.962;2023-08-07T06:42:40;16.60;99.90
4749;DHT22;2388;53.582;9.962;2023-08-07T06:45:06;16.60;99.90
4749;DHT22;2388;53.582;9.962;2023-08-07T06:47:31;16.60;99.90
4749;DHT22;2388;53.582;9.962;2023-08-07T06:49:57;16.70;99.90
4749;DHT22;2388;53.582;9.962;2023-08-07T06:52:22;16.70;99.90
4749;DHT22;2388;53.582;9.962;2023-08-07T06:54:48;16.70;99.90
4749;DHT22;2388;53.582;9.962;2023-08-07T06:57:14;16.70;99.90
4749;DHT22;2388;53.582;9.962;2023-08-07T06:59:39;16.70;99.90
4749;DHT22;2388;53.582;9.962;2023-08-07T07:02:05;16.80;99.90
4749;DHT22;2388;53.582;9.962;2023-08-07T07:04:31;16.80;99.90
4749;DHT22;2388;53.582;9.962;2023-08-07T07:06:56;16.80;99.90
4749;DHT22;2388;53.582;9.962;2023-08-07T07:09:22;16.80;99.90
4749;DHT22;2388;53.582;9.962;2023-08-07T07:11:48;16.80;99.90
4749;DHT22;2388;53.582;9.962;2023-08-07T07:14:13;16.80;99.90
4749;DHT22;2388;53.582;9.962;2023-08-07T07:16:39;16.80;99.90
4749;DHT22;2388;53.582;9.962;2023-08-07T07:19:04;16.80;99.90
4749;DHT22;2388;53.582;9.962;2023-08-07T07:21:33;16.80;99.90
4749;DHT22;2388;53.582;9.962;2023-08-07T07:24:00;16.80;99.90
4749;DHT22;2388;53.582;9.962;2023-08-07T07:26:25;16.80;99.90
4749;DHT22;2388;53.582;9.962;2023-08-07T07:28:51;16.90;99.90
4749;DHT22;2388;53.582;9.962;2023-08-07T07:31:16;16.90;99.90
4749;DHT22;2388;53.582;9.962;2023-08-07T07:33:42;16.90;99.90
4749;DHT22;2388;53.582;9.962;2023-08-07T07:36:16;16.80;99.90
4749;DHT22;2388;53.582;9.962;2023-08-07T07:38:42;16.60;99.90
4749;DHT22;2388;53.582;9.962;2023-08-07T07:41:08;16.40;99.90
4749;DHT22;2388;53.582;9.962;2023-08-07T07:43:36;16.30;99.90
4749;DHT22;2388;53.582;9.962;2023-08-07T07:46:02;16.30;99.90
4749;DHT22;2388;53.582;9.962;2023-08-07T07:48:28;16.30;99.90
4749;DHT22;2388;53.582;9.962;2023-08-07T07:51:01;16.40;99.90
4749;DHT22;2388;53.582;9.962;2023-08-07T07:53:27;16.40;99.90
4749;DHT22;2388;53.582;9.962;2023-08-07T07:55:53;16.50;99.90
4749;DHT22;2388;53.582;9.962;2023-08-07T07:58:19;16.50;99.90
4749;DHT22;2388;53.582;9.962;2023-08-07T08:00:45;16.60;99.90
4749;DHT22;2388;53.582;9.962;2023-08-07T08:03:11;16.70;99.90
4749;DHT22;2388;53.582;9.962;2023-08-07T08:05:38;16.80;99.90
4749;DHT22;2388;53.582;9.962;2023-08-07T08:08:03;16.80;99.90
4749;DHT22;2388;53.582;9.962;2023-08-07T08:10:29;16.90;99.90
4749;DHT22;2388;53.582;9.962;2023-08-07T08:12:55;16.90;99.90
4749;DHT22;2388;53.582;9.962;2023-08-07T08:15:21;16.90;99.90
4749;DHT22;2388;53.582;9.962;2023-08-07T08:17:47;16.90;99.90
4749;DHT22;2388;53.582;9.962;2023-08-07T08:20:14;16.80;99.90
4749;DHT22;2388;53.582;9.962;2023-08-07T08:22:46;16.80;99.90
4749;DHT22;2388;53.582;9.962;2023-08-07T08:25:11;16.70;99.90
4749;DHT22;2388;53.582;9.962;2023-08-07T08:27:37;16.70;99.90
4749;DHT22;2388;53.582;9.962;2023-08-07T08:30:04;16.60;99.90
4749;DHT22;2388;53.582;9.962;2023-08-07T08:32:29;16.50;99.90
4749;DHT22;2388;53.582;9.962;2023-08-07T08:34:55;16.50;99.90
4749;DHT22;2388;53.582;9.962;2023-08-07T08:37:20;16.60;99.90
4749;DHT22;2388;53.582;9.962;2023-08-07T08:39:46;16.60;99.90
4749;DHT22;2388;53.582;9.962;2023-08-07T08:42:12;16.60;99.90
4749;DHT22;2388;53.582;9.962;2023-08-07T08:44:45;16.70;99.90
4749;DHT22;2388;53.582;9.962;2023-08-07T08:47:11;16.70;99.90
4749;DHT22;2388;53.582;9.962;2023-08-07T08:49:47;16.70;99.90
4749;DHT22;2388;53.582;9.962;2023-08-07T08:52:13;16.70;99.90
4749;DHT22;2388;53.582;9.962;2023-08-07T08:54:40;16.70;99.90
4749;DHT22;2388;53.582;9.962;2023-08-07T08:57:06;16.60;99.90
4749;DHT22;2388;53.582;9.962;2023-08-07T08:59:33;16.60;99.90
4749;DHT22;2388;53.582;9.962;2023-08-07T09:01:59;16.60;99.90
4749;DHT22;2388;53.582;9.962;2023-08-07T09:04:25;16.60;99.90
4749;DHT22;2388;53.582;9.962;2023-08-07T09:06:50;16.60;99.90
4749;DHT22;2388;53.582;9.962;2023-08-07T09:09:19;16.60;99.90
4749;DHT22;2388;53.582;9.962;2023-08-07T09:11:45;16.60;99.90
4749;DHT22;2388;53.582;9.962;2023-08-07T09:14:16;16.70;99.90
4749;DHT22;2388;53.582;9.962;2023-08-07T09:16:45;16.70;99.90
4749;DHT22;2388;53.582;9.962;2023-08-07T09:19:13;16.80;99.90
4749;DHT22;2388;53.582;9.962;2023-08-07T09:21:39;16.80;99.90
4749;DHT22;2388;53.582;9.962;2023-08-07T09:24:05;16.80;99.90
4749;DHT22;2388;53.582;9.962;2023-08-07T09:26:32;16.90;99.90
4749;DHT22;2388;53.582;9.962;2023-08-07T09:29:02;16.90;99.90
4749;DHT22;2388;53.582;9.962;2023-08-07T09:31:28;17.00;99.90
4749;DHT22;2388;53.582;9.962;2023-08-07T09:34:01;17.10;99.90
4749;DHT22;2388;53.582;9.962;2023-08-07T09:36:30;17.10;99.90
4749;DHT22;2388;53.582;9.962;2023-08-07T09:38:55;17.10;99.90
4749;DHT22;2388;53.582;9.962;2023-08-07T09:41:21;17.20;99.90
4749;DHT22;2388;53.582;9.962;2023-08-07T09:43:47;17.30;99.90
4749;DHT22;2388;53.582;9.962;2023-08-07T09:46:12;17.30;99.90
4749;DHT22;2388;53.582;9.962;2023-08-07T09:48:40;17.40;99.90
4749;DHT22;2388;53.582;9.962;2023-08-07T09:51:05;17.40;99.90
4749;DHT22;2388;53.582;9.962;2023-08-07T09:53:31;17.50;99.90
4749;DHT22;2388;53.582;9.962;2023-08-07T09:55:57;17.60;99.90
4749;DHT22;2388;53.582;9.962;2023-08-07T09:58:24;17.60;99.90
4749;DHT22;2388;53.582;9.962;2023-08-07T10:00:50;17.70;99.90
4749;DHT22;2388;53.582;9.962;2023-08-07T10:03:16;17.70;99.90
4749;DHT22;2388;53.582;9.962;2023-08-07T10:05:44;17.70;99.90
4749;DHT22;2388;53.582;9.962;2023-08-07T10:08:11;17.80;99.90
4749;DHT22;2388;53.582;9.962;2023-08-07T10:10:37;17.80;99.90
4749;DHT22;2388;53.582;9.962;2023-08-07T10:13:03;17.90;99.90
4749;DHT22;2388;53.582;9.962;2023-08-07T10:15:31;17.90;99.90
4749;DHT22;2388;53.582;9.962;2023-08-07T10:17:58;17.90;99.90
4749;DHT22;2388;53.582;9.962;2023-08-07T10:20:25;17.90;99.90
4749;DHT22;2388;53.582;9.962;2023-08-07T10:22:52;17.80;99.90
4749;DHT22;2388;53.582;9.962;2023-08-07T10:25:21;17.80;99.90
4749;DHT22;2388;53.582;9.962;2023-08-07T10:27:48;17.90;99.90
4749;DHT22;2388;53.582;9.962;2023-08-07T10:30:16;17.90;99.90
4749;DHT22;2388;53.582;9.962;2023-08-07T10:32:44;17.90;99.90
4749;DHT22;2388;53.582;9.962;2023-08-07T10:35:28;17.90;99.90
4749;DHT22;2388;53.582;9.962;2023-08-07T10:37:54;17.90;99.90
4749;DHT22;2388;53.582;9.962;2023-08-07T10:40:20;17.90;99.90
4749;DHT22;2388;53.582;9.962;2023-08-07T10:45:20;17.90;99.90
4749;DHT22;2388;53.582;9.962;2023-08-07T10:48:10;17.90;99.90
4749;DHT22;2388;53.582;9.962;2023-08-07T10:53:35;18.00;99.90
4749;DHT22;2388;53.582;9.962;2023-08-07T10:56:02;18.10;99.90
4749;DHT22;2388;53.582;9.962;2023-08-07T10:58:33;18.20;99.90
4749;DHT22;2388;53.582;9.962;2023-08-07T11:04:02;18.10;99.90
4749;DHT22;2388;53.582;9.962;2023-08-07T11:06:32;18.10;99.90
4749;DHT22;2388;53.582;9.962;2023-08-07T11:09:03;18.00;99.90
4749;DHT22;2388;53.582;9.962;2023-08-07T11:11:38;18.10;99.90
4749;DHT22;2388;53.582;9.962;2023-08-07T11:14:11;18.30;99.90
4749;DHT22;2388;53.582;9.962;2023-08-07T11:16:37;18.20;99.90
4749;DHT22;2388;53.582;9.962;2023-08-07T11:19:03;18.20;99.90
4749;DHT22;2388;53.582;9.962;2023-08-07T11:21:31;17.80;99.90
4749;DHT22;2388;53.582;9.962;2023-08-07T11:23:57;17.60;99.90
4749;DHT22;2388;53.582;9.962;2023-08-07T11:26:22;17.50;99.90
4749;DHT22;2388;53.582;9.962;2023-08-07T11:28:50;17.60;99.90
4749;DHT22;2388;53.582;9.962;2023-08-07T11:31:17;17.60;99.90
4749;DHT22;2388;53.582;9.962;2023-08-07T11:33:43;17.70;99.90
4749;DHT22;2388;53.582;9.962;2023-08-07T11:36:12;17.80;99.90
4749;DHT22;2388;53.582;9.962;2023-08-07T11:38:42;17.90;99.90
4749;DHT22;2388;53.582;9.962;2023-08-07T11:41:09;18.00;99.90
4749;DHT22;2388;53.582;9.962;2023-08-07T11:43:36;18.10;99.90
4749;DHT22;2388;53.582;9.962;2023-08-07T11:46:09;18.10;99.90
4749;DHT22;2388;53.582;9.962;2023-08-07T11:48:38;18.10;99.90
4749;DHT22;2388;53.582;9.962;2023-08-07T11:51:04;17.90;99.90
4749;DHT22;2388;53.582;9.962;2023-08-07T11:53:34;17.80;99.90
4749;DHT22;2388;53.582;9.962;2023-08-07T11:56:02;17.70;99.90
4749;DHT22;2388;53.582;9.962;2023-08-07T11:58:40;17.70;99.90
4749;DHT22;2388;53.582;9.962;2023-08-07T12:01:10;17.70;99.90
4749;DHT22;2388;53.582;9.962;2023-08-07T12:03:37;17.70;99.90
4749;DHT22;2388;53.582;9.962;2023-08-07T12:06:07;17.80;99.90
4749;DHT22;2388;53.582;9.962;2023-08-07T12:08:37;17.90;99.90
4749;DHT22;2388;53.582;9.962;2023-08-07T12:11:04;17.90;99.90
4749;DHT22;2388;53.582;9.962;2023-08-07T12:13:31;17.80;99.90
4749;DHT22;2388;53.582;9.962;2023-08-07T12:15:57;17.60;99.90
4749;DHT22;2388;53.582;9.962;2023-08-07T12:18:24;17.40;99.90
4749;DHT22;2388;53.582;9.962;2023-08-07T12:20:51;17.20;99.90
4749;DHT22;2388;53.582;9.962;2023-08-07T12:23:18;17.10;99.90
4749;DHT22;2388;53.582;9.962;2023-08-07T12:25:45;17.10;99.90
4749;DHT22;2388;53.582;9.962;2023-08-07T12:28:11;17.30;99.90
4749;DHT22;2388;53.582;9.962;2023-08-07T12:30:37;17.30;99.90
4749;DHT22;2388;53.582;9.962;2023-08-07T12:33:03;17.40;99.90
4749;DHT22;2388;53.582;9.962;2023-08-07T12:35:30;17.50;99.90
4749;DHT22;2388;53.582;9.962;2023-08-07T12:37:56;17.50;99.90
4749;DHT22;2388;53.582;9.962;2023-08-07T12:40:22;17.50;99.90
4749;DHT22;2388;53.582;9.962;2023-08-07T12:42:49;17.50;99.90
4749;DHT22;2388;53.582;9.962;2023-08-07T12:45:14;17.30;99.90
4749;DHT22;2388;53.582;9.962;2023-08-07T12:47:41;17.10;99.90
4749;DHT22;2388;53.582;9.962;2023-08-07T12:50:08;17.10;99.90
4749;DHT22;2388;53.582;9.962;2023-08-07T12:52:33;17.10;99.90
4749;DHT22;2388;53.582;9.962;2023-08-07T12:54:59;17.10;99.90
4749;DHT22;2388;53.582;9.962;2023-08-07T12:57:25;17.10;99.90
4749;DHT22;2388;53.582;9.962;2023-08-07T12:59:50;17.10;99.90
4749;DHT22;2388;53.582;9.962;2023-08-07T13:02:16;17.10;99.90
4749;DHT22;2388;53.582;9.962;2023-08-07T13:04:42;17.00;99.90
4749;DHT22;2388;53.582;9.962;2023-08-07T13:07:07;16.90;99.90
4749;DHT22;2388;53.582;9.962;2023-08-07T13:09:33;16.80;99.90
4749;DHT22;2388;53.582;9.962;2023-08-07T13:11:58;17.00;99.90
4749;DHT22;2388;53.582;9.962;2023-08-07T13:14:24;17.40;99.90
4749;DHT22;2388;53.582;9.962;2023-08-07T13:16:49;17.80;99.90
4749;DHT22;2388;53.582;9.962;2023-08-07T13:19:16;18.10;99.90
4749;DHT22;2388;53.582;9.962;2023-08-07T13:21:42;18.50;99.90
4749;DHT22;2388;53.582;9.962;2023-08-07T13:24:07;18.70;99.90
4749;DHT22;2388;53.582;9.962;2023-08-07T13:26:33;18.80;99.90
4749;DHT22;2388;53.582;9.962;2023-08-07T13:28:58;18.70;99.90
4749;DHT22;2388;53.582;9.962;2023-08-07T13:31:24;18.70;99.90
4749;DHT22;2388;53.582;9.962;2023-08-07T13:33:49;18.50;99.90
4749;DHT22;2388;53.582;9.962;2023-08-07T13:36:15;18.30;99.90
4749;DHT22;2388;53.582;9.962;2023-08-07T13:38:40;18.20;99.90
4749;DHT22;2388;53.582;9.962;2023-08-07T13:41:06;18.10;99.90
4749;DHT22;2388;53.582;9.962;2023-08-07T13:43:32;18.00;99.90
4749;DHT22;2388;53.582;9.962;2023-08-07T13:45:57;18.00;99.90
4749;DHT22;2388;53.582;9.962;2023-08-07T13:48:23;18.00;99.90
4749;DHT22;2388;53.582;9.962;2023-08-07T13:50:52;18.30;99.90
4749;DHT22;2388;53.582;9.962;2023-08-07T13:53:18;18.50;99.90
4749;DHT22;2388;53.582;9.962;2023-08-07T13:55:44;18.70;99.90
4749;DHT22;2388;53.582;9.962;2023-08-07T13:58:10;18.70;99.90
4749;DHT22;2388;53.582;9.962;2023-08-07T14:00:35;18.70;99.90
4749;DHT22;2388;53.582;9.962;2023-08-07T14:03:01;18.70;99.90
4749;DHT22;2388;53.582;9.962;2023-08-07T14:05:26;18.70;99.90
4749;DHT22;2388;53.582;9.962;2023-08-07T14:07:52;18.60;99.90
4749;DHT22;2388;53.582;9.962;2023-08-07T14:10:18;18.50;99.90
4749;DHT22;2388;53.582;9.962;2023-08-07T14:12:44;18.50;99.90
4749;DHT22;2388;53.582;9.962;2023-08-07T14:15:09;18.60;99.90
4749;DHT22;2388;53.582;9.962;2023-08-07T14:17:37;18.60;99.90
4749;DHT22;2388;53.582;9.962;2023-08-07T14:20:03;18.50;99.90
4749;DHT22;2388;53.582;9.962;2023-08-07T14:22:30;18.40;99.90
4749;DHT22;2388;53.582;9.962;2023-08-07T14:24:56;18.30;99.90
4749;DHT22;2388;53.582;9.962;2023-08-07T14:27:21;18.20;99.90
4749;DHT22;2388;53.582;9.962;2023-08-07T14:29:47;18.10;99.90
4749;DHT22;2388;53.582;9.962;2023-08-07T14:32:12;18.00;99.90
4749;DHT22;2388;53.582;9.962;2023-08-07T14:34:37;18.00;99.90
4749;DHT22;2388;53.582;9.962;2023-08-07T14:37:03;17.90;99.90
4749;DHT22;2388;53.582;9.962;2023-08-07T14:39:29;17.90;99.90
4749;DHT22;2388;53.582;9.962;2023-08-07T14:41:55;17.80;99.90
4749;DHT22;2388;53.582;9.962;2023-08-07T14:44:21;17.90;99.90
4749;DHT22;2388;53.582;9.962;2023-08-07T14:46:46;17.90;99.90
4749;DHT22;2388;53.582;9.962;2023-08-07T14:49:12;18.00;99.90
4749;DHT22;2388;53.582;9.962;2023-08-07T14:51:37;18.00;99.90
4749;DHT22;2388;53.582;9.962;2023-08-07T14:54:03;18.10;99.90
4749;DHT22;2388;53.582;9.962;2023-08-07T14:56:28;18.00;99.90
4749;DHT22;2388;53.582;9.962;2023-08-07T14:58:54;18.00;99.90
4749;DHT22;2388;53.582;9.962;2023-08-07T15:01:19;17.90;99.90
4749;DHT22;2388;53.582;9.962;2023-08-07T15:03:45;17.90;99.90
4749;DHT22;2388;53.582;9.962;2023-08-07T15:06:11;17.70;99.90
4749;DHT22;2388;53.582;9.962;2023-08-07T15:08:36;17.60;99.90
4749;DHT22;2388;53.582;9.962;2023-08-07T15:11:02;17.50;99.90
4749;DHT22;2388;53.582;9.962;2023-08-07T15:13:27;17.50;99.90
4749;DHT22;2388;53.582;9.962;2023-08-07T15:15:53;17.50;99.90
4749;DHT22;2388;53.582;9.962;2023-08-07T15:18:18;17.50;99.90
4749;DHT22;2388;53.582;9.962;2023-08-07T15:20:44;17.40;99.90
4749;DHT22;2388;53.582;9.962;2023-08-07T15:23:11;17.20;99.90
4749;DHT22;2388;53.582;9.962;2023-08-07T15:25:37;17.10;99.90
4749;DHT22;2388;53.582;9.962;2023-08-07T15:28:03;17.10;99.90
4749;DHT22;2388;53.582;9.962;2023-08-07T15:30:29;17.10;99.90
4749;DHT22;2388;53.582;9.962;2023-08-07T15:32:55;17.00;99.90
4749;DHT22;2388;53.582;9.962;2023-08-07T15:35:21;17.00;99.90
4749;DHT22;2388;53.582;9.962;2023-08-07T15:37:46;17.00;99.90
4749;DHT22;2388;53.582;9.962;2023-08-07T15:40:12;16.90;99.90
4749;DHT22;2388;53.582;9.962;2023-08-07T15:42:37;16.90;99.90
4749;DHT22;2388;53.582;9.962;2023-08-07T15:45:03;16.80;99.90
4749;DHT22;2388;53.582;9.962;2023-08-07T15:47:30;16.50;99.90
4749;DHT22;2388;53.582;9.962;2023-08-07T15:49:55;16.30;99.90
4749;DHT22;2388;53.582;9.962;2023-08-07T15:52:21;16.10;99.90
4749;DHT22;2388;53.582;9.962;2023-08-07T15:54:47;16.00;99.90
4749;DHT22;2388;53.582;9.962;2023-08-07T15:57:12;15.90;99.90
4749;DHT22;2388;53.582;9.962;2023-08-07T15:59:38;15.80;99.90
4749;DHT22;2388;53.582;9.962;2023-08-07T16:02:04;15.80;99.90
4749;DHT22;2388;53.582;9.962;2023-08-07T16:04:31;15.70;99.90
4749;DHT22;2388;53.582;9.962;2023-08-07T16:06:56;15.60;99.90